createdAt,value
2019-05-25T00:01:08.947Z,71.50
2019-05-25T00:03:38.097Z,71.60
2019-05-25T00:06:07.170Z,71.40
2019-05-25T00:08:36.182Z,71.70
2019-05-25T00:11:05.294Z,71.50
2019-05-25T00:13:34.358Z,72.90
2019-05-25T00:16:03.455Z,72.20
2019-05-25T00:18:32.398Z,72.20
2019-05-25T00:21:01.468Z,72.40
2019-05-25T00:23:30.546Z,72.00
2019-05-25T00:25:59.609Z,71.80
2019-05-25T00:28:28.716Z,71.90
2019-05-25T00:30:57.793Z,72.30
2019-05-25T00:33:26.919Z,72.30
2019-05-25T00:35:55.929Z,72.30
2019-05-25T00:38:25.006Z,72.30
2019-05-25T00:40:54.125Z,72.50
2019-05-25T00:43:23.194Z,73.00
2019-05-25T00:45:52.324Z,73.50
2019-05-25T00:48:21.307Z,73.20
2019-05-25T00:50:50.375Z,73.10
2019-05-25T00:53:19.448Z,73.30
2019-05-25T00:55:48.455Z,73.90
2019-05-25T00:58:17.505Z,74.10
2019-05-25T01:00:46.646Z,74.40
2019-05-25T01:03:15.700Z,74.20
2019-05-25T01:05:44.679Z,74.10
2019-05-25T01:08:13.690Z,73.70
2019-05-25T01:10:42.690Z,74.00
2019-05-25T01:13:11.764Z,74.40
2019-05-25T01:15:40.914Z,74.50
2019-05-25T01:18:10.047Z,74.40
2019-05-25T01:20:39.165Z,74.50
2019-05-25T01:23:08.165Z,74.80
2019-05-25T01:25:37.223Z,74.10
2019-05-25T01:28:06.311Z,74.60
2019-05-25T01:30:35.456Z,74.70
2019-05-25T01:33:04.550Z,74.50
2019-05-25T01:35:33.683Z,74.80
2019-05-25T01:38:02.762Z,74.60
2019-05-25T01:40:31.759Z,76.20
2019-05-25T01:43:00.715Z,75.00
2019-05-25T01:45:29.725Z,74.60
2019-05-25T01:47:58.792Z,74.80
2019-05-25T01:50:27.889Z,75.00
2019-05-25T01:52:56.827Z,75.10
2019-05-25T01:55:25.843Z,75.30
2019-05-25T01:57:54.910Z,75.70
2019-05-25T02:00:24.269Z,75.70
2019-05-25T02:02:53.334Z,75.60
2019-05-25T02:05:22.430Z,75.80
2019-05-25T02:07:51.486Z,75.70
2019-05-25T02:10:20.566Z,75.80
2019-05-25T02:12:49.583Z,75.80
2019-05-25T02:15:18.673Z,76.30
2019-05-25T02:17:47.744Z,76.20
2019-05-25T02:20:16.802Z,76.10
2019-05-25T02:22:45.919Z,76.20
2019-05-25T02:25:18.239Z,75.30
2019-05-25T02:27:45.838Z,75.50
2019-05-25T02:30:16.523Z,76.10
2019-05-25T02:32:45.575Z,76.60
2019-05-25T02:35:24.055Z,76.10
2019-05-25T02:37:53.135Z,76.00
2019-05-25T02:40:22.259Z,76.00
2019-05-25T02:42:51.268Z,75.90
2019-05-25T02:45:20.434Z,75.90
2019-05-25T02:47:49.590Z,75.80
2019-05-25T02:50:19.872Z,76.00
2019-05-25T02:52:49.003Z,76.30
2019-05-25T02:55:32.926Z,75.70
2019-05-25T02:57:49.127Z,75.70
2019-05-25T03:00:21.343Z,75.80
2019-05-25T03:02:50.511Z,75.80
2019-05-25T03:05:19.674Z,75.10
2019-05-25T03:07:49.410Z,74.80
2019-05-25T03:10:18.488Z,74.80
2019-05-25T03:12:47.703Z,74.90
2019-05-25T03:15:16.823Z,74.80
2019-05-25T03:17:45.809Z,74.20
2019-05-25T03:20:14.917Z,74.40
2019-05-25T03:22:43.996Z,74.00
2019-05-25T03:25:13.138Z,74.40
2019-05-25T03:27:42.124Z,74.50
2019-05-25T03:30:12.820Z,74.50
2019-05-25T03:32:41.975Z,74.70
2019-05-25T03:35:11.314Z,74.30
2019-05-25T03:37:40.472Z,74.40
2019-05-25T03:40:09.711Z,75.00
2019-05-25T03:42:38.708Z,74.70
2019-05-25T03:45:08.796Z,74.20
2019-05-25T03:47:37.809Z,73.50
2019-05-25T03:50:07.183Z,73.40
2019-05-25T03:52:36.179Z,74.70
2019-05-25T03:55:05.382Z,73.90
2019-05-25T03:57:34.533Z,74.60
2019-05-25T04:00:04.120Z,74.70
2019-05-25T04:02:33.255Z,74.70
2019-05-25T04:05:02.393Z,74.10
2019-05-25T04:07:31.456Z,74.80
2019-05-25T04:10:00.580Z,76.00
2019-05-25T04:12:29.656Z,75.50
2019-05-25T04:14:58.730Z,74.90
2019-05-25T04:17:27.773Z,74.70
2019-05-25T04:19:56.819Z,75.90
2019-05-25T04:22:25.746Z,75.00
2019-05-25T04:24:54.689Z,75.40
2019-05-25T04:27:23.701Z,74.90
2019-05-25T04:29:52.797Z,75.00
2019-05-25T04:32:21.858Z,74.90
2019-05-25T04:34:50.938Z,75.10
2019-05-25T04:37:20.000Z,74.60
2019-05-25T04:39:49.004Z,74.50
2019-05-25T04:42:18.066Z,74.60
2019-05-25T04:44:47.194Z,74.40
2019-05-25T04:47:26.485Z,74.70
2019-05-25T04:49:46.931Z,74.70
2019-05-25T04:52:15.923Z,74.40
2019-05-25T04:54:44.922Z,74.00
2019-05-25T04:57:14.113Z,73.60
2019-05-25T04:59:43.214Z,74.10
2019-05-25T05:02:12.220Z,73.60
2019-05-25T05:04:41.372Z,73.50
2019-05-25T05:07:10.544Z,74.10
2019-05-25T05:09:39.580Z,74.00
2019-05-25T05:12:08.637Z,73.30
2019-05-25T05:14:37.682Z,73.00
2019-05-25T05:17:06.680Z,73.10
2019-05-25T05:19:35.761Z,72.90
2019-05-25T05:22:05.885Z,71.90
2019-05-25T05:24:35.262Z,72.80
2019-05-25T05:27:04.418Z,72.90
2019-05-25T05:29:33.507Z,73.10
2019-05-25T05:32:02.603Z,73.50
2019-05-25T05:34:31.797Z,73.10
2019-05-25T05:37:01.872Z,72.90
2019-05-25T05:39:31.774Z,72.90
2019-05-25T05:42:02.410Z,72.70
2019-05-25T05:44:32.590Z,72.70
2019-05-25T05:47:04.359Z,72.80
2019-05-25T05:49:33.788Z,73.10
2019-05-25T05:52:03.549Z,73.10
2019-05-25T05:54:32.956Z,72.60
2019-05-25T05:57:11.976Z,72.10
2019-05-25T05:59:32.968Z,71.80
2019-05-25T06:02:02.122Z,72.10
2019-05-25T06:04:31.113Z,72.20
2019-05-25T06:07:00.277Z,71.90
2019-05-25T06:09:29.251Z,71.70
2019-05-25T06:11:58.324Z,70.90
2019-05-25T06:14:27.339Z,71.50
2019-05-25T06:16:56.391Z,71.50
2019-05-25T06:19:25.478Z,71.00
2019-05-25T06:21:54.522Z,70.60
2019-05-25T06:24:23.606Z,71.20
2019-05-25T06:26:52.614Z,71.50
2019-05-25T06:29:21.805Z,70.40
2019-05-25T06:31:51.073Z,70.80
2019-05-25T06:34:20.207Z,70.80
2019-05-25T06:36:49.216Z,70.10
2019-05-25T06:39:18.277Z,70.00
2019-05-25T06:41:47.303Z,70.30
2019-05-25T06:44:16.296Z,70.50
2019-05-25T06:46:45.367Z,69.80
2019-05-25T06:49:14.360Z,70.10
2019-05-25T06:51:43.350Z,70.90
2019-05-25T06:54:12.378Z,71.10
2019-05-25T06:56:41.438Z,71.30
2019-05-25T06:59:10.448Z,69.70
2019-05-25T07:01:39.461Z,69.20
2019-05-25T07:04:08.469Z,69.10
2019-05-25T07:06:37.467Z,69.20
2019-05-25T07:09:07.685Z,69.30
2019-05-25T07:11:36.857Z,69.60
2019-05-25T07:14:05.999Z,70.40
2019-05-25T07:16:35.002Z,70.80
2019-05-25T07:19:04.171Z,70.00
2019-05-25T07:21:33.349Z,70.60
2019-05-25T07:24:02.423Z,70.10
2019-05-25T07:26:31.516Z,69.40
2019-05-25T07:29:00.519Z,69.50
2019-05-25T07:31:29.591Z,68.80
2019-05-25T07:33:58.527Z,69.00
2019-05-25T07:36:27.604Z,68.20
2019-05-25T07:38:56.624Z,68.90
2019-05-25T07:41:25.696Z,67.70
2019-05-25T07:43:54.711Z,68.50
2019-05-25T07:46:23.787Z,67.00
2019-05-25T07:48:52.786Z,66.50
2019-05-25T07:51:21.770Z,67.50
2019-05-25T07:53:50.791Z,66.00
2019-05-25T07:56:19.802Z,65.60
2019-05-25T07:58:48.955Z,65.90
2019-05-25T08:01:18.035Z,65.00
2019-05-25T08:03:47.179Z,65.10
2019-05-25T08:06:16.327Z,65.40
2019-05-25T08:08:45.398Z,65.70
2019-05-25T08:11:14.502Z,66.50
2019-05-25T08:13:43.522Z,66.40
2019-05-25T08:16:12.571Z,65.60
2019-05-25T08:18:41.756Z,64.40
2019-05-25T08:21:10.819Z,66.00
2019-05-25T08:23:39.859Z,67.30
2019-05-25T08:26:08.870Z,66.90
2019-05-25T08:28:37.954Z,66.40
2019-05-25T08:31:06.968Z,64.60
2019-05-25T08:33:36.104Z,64.30
2019-05-25T08:36:05.262Z,64.70
2019-05-25T08:38:34.348Z,65.00
2019-05-25T08:41:03.335Z,65.50
2019-05-25T08:43:32.345Z,66.30
2019-05-25T08:46:01.477Z,65.70
2019-05-25T08:48:30.637Z,65.90
2019-05-25T08:50:59.875Z,65.80
2019-05-25T08:53:40.633Z,64.80
2019-05-25T08:55:59.718Z,64.90
2019-05-25T08:58:28.730Z,64.50
2019-05-25T09:00:57.794Z,64.60
2019-05-25T09:03:26.867Z,65.60
2019-05-25T09:05:56.005Z,65.50
2019-05-25T09:08:25.170Z,64.20
2019-05-25T09:10:54.172Z,64.90
2019-05-25T09:13:23.167Z,64.80
2019-05-25T09:15:52.193Z,60.80
2019-05-25T09:18:21.293Z,62.20
2019-05-25T09:20:50.206Z,63.50
2019-05-25T09:23:19.270Z,64.60
2019-05-25T09:25:48.440Z,62.90
2019-05-25T09:28:17.516Z,63.50
2019-05-25T09:30:46.584Z,62.70
2019-05-25T09:33:15.775Z,60.00
2019-05-25T09:35:44.875Z,60.20
2019-05-25T09:38:13.948Z,59.50
2019-05-25T09:40:42.982Z,60.20
2019-05-25T09:43:12.023Z,59.80
2019-05-25T09:45:41.010Z,57.20
2019-05-25T09:48:10.017Z,58.20
2019-05-25T09:50:39.011Z,56.20
2019-05-25T09:53:08.104Z,55.90
2019-05-25T09:55:37.154Z,54.80
2019-05-25T09:58:06.180Z,55.50
2019-05-25T10:00:39.866Z,54.30
2019-05-25T10:03:06.131Z,52.30
2019-05-25T10:05:35.251Z,53.80
2019-05-25T10:08:05.381Z,53.50
2019-05-25T10:10:34.528Z,56.00
2019-05-25T10:13:03.622Z,55.50
2019-05-25T10:15:32.627Z,54.50
2019-05-25T10:18:01.803Z,53.90
2019-05-25T10:20:30.795Z,52.80
2019-05-25T10:22:59.835Z,52.90
2019-05-25T10:25:29.444Z,54.10
2019-05-25T10:27:58.569Z,54.60
2019-05-25T10:30:27.696Z,54.50
2019-05-25T10:32:56.837Z,52.60
2019-05-25T10:35:25.941Z,55.20
2019-05-25T10:37:55.024Z,55.40
2019-05-25T10:40:24.144Z,55.30
2019-05-25T10:42:53.147Z,53.10
2019-05-25T10:45:22.415Z,54.40
2019-05-25T10:47:51.511Z,56.00
2019-05-25T10:50:20.582Z,54.90
2019-05-25T10:52:49.642Z,54.50
2019-05-25T10:55:18.941Z,54.10
2019-05-25T10:57:48.038Z,55.10
2019-05-25T11:00:18.955Z,56.10
2019-05-25T11:02:48.598Z,56.30
2019-05-25T11:05:18.043Z,56.20
2019-05-25T11:07:47.105Z,54.00
2019-05-25T11:10:16.537Z,53.90
2019-05-25T11:12:45.633Z,53.60
2019-05-25T11:15:16.182Z,54.10
2019-05-25T11:17:45.286Z,53.50
2019-05-25T11:20:14.728Z,54.50
2019-05-25T11:22:43.811Z,53.00
2019-05-25T11:25:13.195Z,54.30
2019-05-25T11:27:42.216Z,54.90
2019-05-25T11:30:13.562Z,56.00
2019-05-25T11:32:42.617Z,52.30
2019-05-25T11:35:11.913Z,52.30
2019-05-25T11:37:40.958Z,52.90
2019-05-25T11:40:10.551Z,52.30
2019-05-25T11:42:39.699Z,52.40
2019-05-25T11:45:09.449Z,54.10
2019-05-25T11:47:38.614Z,52.30
2019-05-25T11:50:07.969Z,50.70
2019-05-25T11:52:37.169Z,50.30
2019-05-25T11:55:06.579Z,50.90
2019-05-25T11:57:35.796Z,51.10
2019-05-25T12:00:06.610Z,51.30
2019-05-25T12:02:35.677Z,49.90
2019-05-25T12:05:05.960Z,51.10
2019-05-25T12:07:34.947Z,50.10
2019-05-25T12:10:04.203Z,49.60
2019-05-25T12:12:33.304Z,50.40
2019-05-25T12:15:02.454Z,50.00
2019-05-25T12:17:31.446Z,49.60
2019-05-25T12:20:00.540Z,50.80
2019-05-25T12:22:29.600Z,53.50
2019-05-25T12:25:17.784Z,54.80
2019-05-25T12:27:49.382Z,56.30
2019-05-25T12:30:18.327Z,57.30
2019-05-25T12:32:47.394Z,58.00
2019-05-25T12:35:18.311Z,58.20
2019-05-25T12:37:47.435Z,57.80
2019-05-25T12:40:17.896Z,56.90
2019-05-25T12:42:47.065Z,56.90
2019-05-25T12:45:16.370Z,56.30
2019-05-25T12:47:45.398Z,56.30
2019-05-25T12:50:14.944Z,55.50
2019-05-25T12:52:44.003Z,54.50
2019-05-25T12:55:13.850Z,52.50
2019-05-25T12:57:42.943Z,51.40
2019-05-25T13:00:16.092Z,51.10
2019-05-25T13:02:43.098Z,50.70
2019-05-25T13:05:13.632Z,51.00
2019-05-25T13:07:42.771Z,50.60
2019-05-25T13:10:12.138Z,51.20
2019-05-25T13:12:41.087Z,51.30
2019-05-25T13:15:10.150Z,51.00
2019-05-25T13:17:39.249Z,49.30
2019-05-25T13:20:08.691Z,50.40
2019-05-25T13:22:37.660Z,51.10
2019-05-25T13:25:07.331Z,48.70
2019-05-25T13:27:36.449Z,47.70
2019-05-25T13:30:06.636Z,48.30
2019-05-25T13:32:35.629Z,48.50
2019-05-25T13:35:05.351Z,45.70
2019-05-25T13:37:34.723Z,44.70
2019-05-25T13:40:03.827Z,45.50
2019-05-25T13:42:32.847Z,45.20
2019-05-25T13:45:01.936Z,46.20
2019-05-25T13:47:30.944Z,46.40
2019-05-25T13:49:59.932Z,46.40
2019-05-25T13:52:29.019Z,46.30
2019-05-25T13:54:58.030Z,47.20
2019-05-25T13:57:27.111Z,46.40
2019-05-25T13:59:56.139Z,48.30
2019-05-25T14:02:25.292Z,49.20
2019-05-25T14:04:54.356Z,49.60
2019-05-25T14:07:23.515Z,48.80
2019-05-25T14:09:52.605Z,49.00
2019-05-25T14:12:21.706Z,49.60
2019-05-25T14:14:50.778Z,48.60
2019-05-25T14:17:19.821Z,50.10
2019-05-25T14:19:48.828Z,50.00
2019-05-25T14:22:17.902Z,50.50
2019-05-25T14:24:46.931Z,51.80
2019-05-25T14:27:15.915Z,50.50
2019-05-25T14:29:45.020Z,51.50
2019-05-25T14:32:14.172Z,50.90
2019-05-25T14:34:43.314Z,51.10
2019-05-25T14:37:12.371Z,51.10
2019-05-25T14:39:41.358Z,49.70
2019-05-25T14:42:10.370Z,50.30
2019-05-25T14:44:39.274Z,50.40
2019-05-25T14:47:08.336Z,50.50
2019-05-25T14:49:37.401Z,50.30
2019-05-25T14:52:06.626Z,50.40
2019-05-25T14:54:35.667Z,50.70
2019-05-25T14:57:04.811Z,50.40
2019-05-25T14:59:33.898Z,50.30
2019-05-25T15:02:03.897Z,50.80
2019-05-25T15:04:33.202Z,51.40
2019-05-25T15:07:02.308Z,51.30
2019-05-25T15:09:31.364Z,51.70
2019-05-25T15:12:00.462Z,50.30
2019-05-25T15:14:29.554Z,49.60
2019-05-25T15:16:58.691Z,50.00
2019-05-25T15:19:27.775Z,49.50
2019-05-25T15:21:56.940Z,50.50
2019-05-25T15:24:26.101Z,50.70
2019-05-25T15:26:55.020Z,50.40
2019-05-25T15:29:24.019Z,50.30
2019-05-25T15:31:53.048Z,50.60
2019-05-25T15:34:22.213Z,50.40
2019-05-25T15:36:51.248Z,48.20
2019-05-25T15:39:20.310Z,47.50
2019-05-25T15:41:49.399Z,47.20
2019-05-25T15:44:18.315Z,46.90
2019-05-25T15:46:47.425Z,47.30
2019-05-25T15:49:16.579Z,48.20
2019-05-25T15:51:45.591Z,45.50
2019-05-25T15:54:14.762Z,46.40
2019-05-25T15:56:43.953Z,46.30
2019-05-25T15:59:13.054Z,46.70
2019-05-25T16:01:42.116Z,46.40
2019-05-25T16:04:11.042Z,47.00
2019-05-25T16:06:40.104Z,47.00
2019-05-25T16:09:09.219Z,47.50
2019-05-25T16:11:38.350Z,47.70
2019-05-25T16:14:07.902Z,47.00
2019-05-25T16:16:37.186Z,47.80
2019-05-25T16:19:06.251Z,48.50
2019-05-25T16:21:35.172Z,48.60
2019-05-25T16:24:07.794Z,56.80
2019-05-25T16:26:45.341Z,60.60
2019-05-25T16:29:05.739Z,61.50
2019-05-25T16:31:34.847Z,62.60
2019-05-25T16:34:03.927Z,63.10
2019-05-25T16:36:33.072Z,63.80
2019-05-25T16:39:02.245Z,64.70
2019-05-25T16:41:31.309Z,65.00
2019-05-25T16:44:00.494Z,64.40
2019-05-25T16:46:29.559Z,64.50
2019-05-25T16:48:58.631Z,64.50
2019-05-25T16:51:27.637Z,65.00
2019-05-25T16:53:56.639Z,65.20
2019-05-25T16:56:25.734Z,65.30
2019-05-25T16:58:54.864Z,65.30
2019-05-25T17:01:23.950Z,65.60
2019-05-25T17:03:53.026Z,65.30
2019-05-25T17:06:21.943Z,64.40
2019-05-25T17:08:51.014Z,64.60
2019-05-25T17:11:20.184Z,64.70
2019-05-25T17:13:49.174Z,64.80
2019-05-25T17:16:18.116Z,65.30
2019-05-25T17:18:47.255Z,65.70
2019-05-25T17:21:16.379Z,65.80
2019-05-25T17:23:45.451Z,66.20
2019-05-25T17:26:14.437Z,68.80
2019-05-25T17:28:43.447Z,70.00
2019-05-25T17:31:12.538Z,71.10
2019-05-25T17:33:46.013Z,72.00
2019-05-25T17:36:13.272Z,71.30
2019-05-25T17:38:42.503Z,73.00
2019-05-25T17:41:11.602Z,75.10
2019-05-25T17:43:40.736Z,74.40
2019-05-25T17:46:09.895Z,71.50
2019-05-25T17:48:38.975Z,72.50
2019-05-25T17:51:08.067Z,73.10
2019-05-25T17:53:37.122Z,72.90
2019-05-25T17:56:06.402Z,73.10
2019-05-25T17:58:35.784Z,73.80
2019-05-25T18:01:05.077Z,73.30
2019-05-25T18:03:34.156Z,72.90
2019-05-25T18:06:03.256Z,73.10
2019-05-25T18:08:32.426Z,72.80
2019-05-25T18:11:01.449Z,72.80
2019-05-25T18:13:30.491Z,72.70
2019-05-25T18:15:59.649Z,72.90
2019-05-25T18:18:28.796Z,73.30
2019-05-25T18:20:57.798Z,74.10
2019-05-25T18:23:26.988Z,75.00
2019-05-25T18:25:56.111Z,75.10
2019-05-25T18:28:25.105Z,75.60
2019-05-25T18:30:54.193Z,75.70
2019-05-25T18:33:23.339Z,75.90
2019-05-25T18:35:52.355Z,76.20
2019-05-25T18:38:21.446Z,76.70
2019-05-25T18:40:50.510Z,77.10
2019-05-25T18:43:19.601Z,76.90
2019-05-25T18:45:48.772Z,77.00
2019-05-25T18:48:17.916Z,77.00
2019-05-25T18:50:47.280Z,78.10
2019-05-25T18:53:16.383Z,77.30
2019-05-25T18:55:45.376Z,77.50
2019-05-25T18:58:14.455Z,77.10
2019-05-25T19:00:43.643Z,77.20
2019-05-25T19:03:12.795Z,75.80
2019-05-25T19:05:41.798Z,76.20
2019-05-25T19:08:10.798Z,76.10
2019-05-25T19:10:39.812Z,76.20
2019-05-25T19:13:08.840Z,76.10
2019-05-25T19:15:37.903Z,75.30
2019-05-25T19:18:06.981Z,75.00
2019-05-25T19:20:36.075Z,74.30
2019-05-25T19:23:05.091Z,73.40
2019-05-25T19:25:34.116Z,74.30
2019-05-25T19:28:03.287Z,73.00
2019-05-25T19:30:32.452Z,73.30
2019-05-25T19:33:01.613Z,73.60
2019-05-25T19:35:30.758Z,73.10
2019-05-25T19:37:59.838Z,73.30
2019-05-25T19:40:28.994Z,72.90
2019-05-25T19:42:58.019Z,72.90
2019-05-25T19:45:27.063Z,73.20
2019-05-25T19:47:56.212Z,73.10
2019-05-25T19:50:25.351Z,73.10
2019-05-25T19:52:54.344Z,73.50
2019-05-25T19:55:23.350Z,74.30
2019-05-25T19:57:52.455Z,74.50
2019-05-25T20:00:21.613Z,75.00
2019-05-25T20:02:50.782Z,75.50
2019-05-25T20:05:19.842Z,75.50
2019-05-25T20:07:48.843Z,76.00
2019-05-25T20:10:19.675Z,76.30
2019-05-25T20:12:48.791Z,76.30
2019-05-25T20:15:18.207Z,76.70
2019-05-25T20:17:47.286Z,77.60
2019-05-25T20:20:16.408Z,78.20
2019-05-25T20:22:45.478Z,78.70
2019-05-25T20:25:14.873Z,78.80
2019-05-25T20:27:43.950Z,79.00
2019-05-25T20:30:13.159Z,79.30
2019-05-25T20:32:42.095Z,78.80
2019-05-25T20:35:11.447Z,78.90
2019-05-25T20:37:40.455Z,78.90
2019-05-25T20:40:09.995Z,79.80
2019-05-25T20:42:39.479Z,79.80
2019-05-25T20:45:09.240Z,79.40
2019-05-25T20:47:38.348Z,79.30
2019-05-25T20:50:08.014Z,78.70
2019-05-25T20:52:37.079Z,78.60
2019-05-25T20:55:07.083Z,78.40
2019-05-25T20:57:36.178Z,78.30
2019-05-25T21:00:06.442Z,77.70
2019-05-25T21:02:35.518Z,77.60
2019-05-25T21:05:04.995Z,78.00
2019-05-25T21:07:34.817Z,77.80
2019-05-25T21:10:04.389Z,77.90
2019-05-25T21:12:33.447Z,78.40
2019-05-25T21:15:02.621Z,78.70
2019-05-25T21:17:31.699Z,78.70
2019-05-25T21:20:00.782Z,79.10
2019-05-25T21:22:29.931Z,79.80
2019-05-25T21:25:05.335Z,80.50
2019-05-25T21:27:29.742Z,80.60
2019-05-25T21:29:58.819Z,80.60
2019-05-25T21:32:27.839Z,80.10
2019-05-25T21:34:56.880Z,80.20
2019-05-25T21:37:26.055Z,79.80
2019-05-25T21:39:54.976Z,80.10
2019-05-25T21:42:24.091Z,79.50
2019-05-25T21:44:53.162Z,79.80
2019-05-25T21:47:22.246Z,79.70
2019-05-25T21:49:51.395Z,79.70
2019-05-25T21:52:20.389Z,79.60
2019-05-25T21:54:49.588Z,79.90
2019-05-25T21:57:18.516Z,79.60
2019-05-25T21:59:47.602Z,79.70
2019-05-25T22:02:16.687Z,80.30
2019-05-25T22:04:45.715Z,80.40
2019-05-25T22:07:14.809Z,80.30
2019-05-25T22:09:43.887Z,80.00
2019-05-25T22:12:12.979Z,80.20
2019-05-25T22:14:41.966Z,80.50
2019-05-25T22:17:11.129Z,80.60
2019-05-25T22:19:40.204Z,80.30
2019-05-25T22:22:09.379Z,80.40
2019-05-25T22:24:38.487Z,80.10
2019-05-25T22:27:07.580Z,79.70
2019-05-25T22:29:36.591Z,80.10
2019-05-25T22:32:05.679Z,80.30
2019-05-25T22:34:34.618Z,79.80
2019-05-25T22:37:03.615Z,79.50
2019-05-25T22:39:32.793Z,78.90
2019-05-25T22:42:01.927Z,78.70
2019-05-25T22:44:31.089Z,78.60
2019-05-25T22:47:00.086Z,78.60
2019-05-25T22:49:29.079Z,79.10
2019-05-25T22:51:58.113Z,79.00
2019-05-25T22:54:27.187Z,79.30
2019-05-25T22:56:56.271Z,79.70
2019-05-25T22:59:25.212Z,79.80
2019-05-25T23:01:54.294Z,80.20
2019-05-25T23:04:23.235Z,80.10
2019-05-25T23:06:57.684Z,80.90
2019-05-25T23:09:22.998Z,81.50
2019-05-25T23:11:52.055Z,82.00
2019-05-25T23:14:21.151Z,81.60
2019-05-25T23:16:50.155Z,81.60
2019-05-25T23:19:19.291Z,81.90
2019-05-25T23:21:48.385Z,81.90
2019-05-25T23:24:18.059Z,81.60
2019-05-25T23:26:47.118Z,81.60
2019-05-25T23:29:16.189Z,81.70
2019-05-25T23:31:45.266Z,82.10
2019-05-25T23:34:14.274Z,82.30
2019-05-25T23:36:43.234Z,82.50
2019-05-25T23:39:12.250Z,83.20
2019-05-25T23:41:41.266Z,83.40
2019-05-25T23:44:10.249Z,83.40
2019-05-25T23:46:39.295Z,83.40
2019-05-25T23:49:08.362Z,83.90
2019-05-25T23:51:37.369Z,84.30
2019-05-25T23:54:06.546Z,84.30
2019-05-25T23:56:35.653Z,84.20
2019-05-25T23:59:04.786Z,84.00
